Time;durP1;ratioP1;P1;durP2;ratioP2;P2;SDS_P1;SDS_P2;PMS_P1;PMS_P2;Temp;Humidity;BMP_temperature;BMP_pressure;BME280_temperature;BME280_humidity;BME280_pressure;Samples;Min_cycle;Max_cycle;Signal;HPM_P1;HPM_P2
2021/08/29 00:01:49;;;;;;;6.03;2.97;;;19.90;82.10;;;;;;4193567;28;20044;-60
2021/08/29 00:04:12;;;;;;;11.65;3.78;;;19.90;82.10;;;;;;4209053;28;20048;-60
2021/08/29 00:06:34;;;;;;;4.03;2.85;;;20.00;82.30;;;;;;4209443;28;20714;-60
2021/08/29 00:08:56;;;;;;;6.47;3.10;;;19.90;82.20;;;;;;4208035;28;20113;-59
2021/08/29 00:11:18;;;;;;;5.68;2.92;;;19.90;82.30;;;;;;4193164;28;20063;-60
2021/08/29 00:13:41;;;;;;;4.40;2.53;;;19.90;82.40;;;;;;4192875;28;20126;-60
2021/08/29 00:16:03;;;;;;;6.85;3.28;;;19.90;82.50;;;;;;4193195;28;20055;-60
2021/08/29 00:18:25;;;;;;;7.43;3.55;;;19.90;82.50;;;;;;4192979;28;20074;-59
2021/08/29 00:20:48;;;;;;;7.90;3.70;;;19.90;82.50;;;;;;4196287;28;20171;-59
2021/08/29 00:23:10;;;;;;;7.72;3.03;;;19.90;82.50;;;;;;4194573;28;20059;-59
2021/08/29 00:25:32;;;;;;;5.75;3.10;;;19.90;82.50;;;;;;4193014;28;20403;-59
2021/08/29 00:27:54;;;;;;;6.53;3.05;;;19.90;82.40;;;;;;4192906;28;20044;-59
2021/08/29 00:30:18;;;;;;;10.52;2.90;;;19.90;82.40;;;;;;4192998;28;20051;-59
2021/08/29 00:32:40;;;;;;;10.13;3.78;;;19.90;82.40;;;;;;4200273;28;20139;-60
2021/08/29 00:35:02;;;;;;;7.70;3.40;;;19.90;82.50;;;;;;4208248;28;20072;-60
2021/08/29 00:37:24;;;;;;;7.15;3.42;;;19.90;82.60;;;;;;4209703;28;20448;-60
2021/08/29 00:39:46;;;;;;;8.13;3.38;;;19.90;82.70;;;;;;4208191;28;20043;-59
2021/08/29 00:42:09;;;;;;;7.50;3.60;;;19.90;82.70;;;;;;4205994;28;20048;-60
2021/08/29 00:44:35;;;;;;;7.35;2.97;;;19.90;82.80;;;;;;4191894;28;20060;-60
2021/08/29 00:46:58;;;;;;;3.88;3.22;;;19.90;82.80;;;;;;4201426;28;20051;-59
2021/08/29 00:49:21;;;;;;;7.35;3.25;;;19.90;82.80;;;;;;4174684;28;20128;-60
2021/08/29 00:51:45;;;;;;;6.85;3.10;;;19.90;82.90;;;;;;4174739;28;20049;-60
2021/08/29 00:54:07;;;;;;;6.22;2.88;;;19.90;82.80;;;;;;4174573;28;20049;-60
2021/08/29 00:56:30;;;;;;;6.55;3.60;;;19.90;82.70;;;;;;4174646;28;20059;-59
2021/08/29 00:58:55;;;;;;;7.05;3.30;;;19.90;82.70;;;;;;4174446;28;20052;-60
2021/08/29 01:01:19;;;;;;;8.65;3.75;;;19.90;82.70;;;;;;4174236;28;20495;-60
2021/08/29 01:03:43;;;;;;;5.38;2.92;;;19.90;82.60;;;;;;4191349;28;20109;-60
2021/08/29 01:06:14;;;;;;;6.22;3.30;;;19.90;82.50;;;;;;4190770;28;20584;-59
2021/08/29 01:08:53;;;;;;;5.63;3.20;;;19.90;82.40;;;;;;4190542;28;20040;-59
2021/08/29 01:11:19;;;;;;;5.22;3.10;;;19.90;82.20;;;;;;4192137;28;20053;-59
2021/08/29 01:13:45;;;;;;;7.85;3.03;;;19.90;83.10;;;;;;4204786;28;20044;-59
2021/08/29 01:16:11;;;;;;;5.95;3.00;;;19.90;82.30;;;;;;4207326;28;20052;-60
2021/08/29 01:18:46;;;;;;;4.15;3.05;;;19.90;82.40;;;;;;4205981;28;20040;-59
2021/08/29 01:21:12;;;;;;;7.15;2.88;;;19.90;82.40;;;;;;4198135;28;20135;-60
2021/08/29 01:23:38;;;;;;;4.85;3.38;;;19.90;82.50;;;;;;4193059;28;20060;-59
2021/08/29 01:26:03;;;;;;;5.82;2.85;;;19.90;82.50;;;;;;4191502;28;20483;-59
2021/08/29 01:28:35;;;;;;;9.15;3.42;;;19.90;82.40;;;;;;4190247;28;20048;-59
2021/08/29 01:30:58;;;;;;;5.95;3.00;;;19.90;82.40;;;;;;4199717;28;20096;-59
2021/08/29 01:33:21;;;;;;;7.40;3.08;;;19.90;82.40;;;;;;4206605;28;20051;-59
2021/08/29 01:35:50;;;;;;;4.47;2.63;;;19.90;82.30;;;;;;4206781;28;20090;-60
2021/08/29 01:38:12;;;;;;;6.68;3.00;;;19.90;83.00;;;;;;4208617;28;20068;-59
2021/08/29 01:40:35;;;;;;;5.13;2.92;;;19.90;82.20;;;;;;4206534;28;20043;-60
2021/08/29 01:43:00;;;;;;;6.35;3.10;;;19.90;82.30;;;;;;4206978;28;20063;-59
2021/08/29 01:45:23;;;;;;;4.53;2.72;;;19.90;82.10;;;;;;4206826;28;20437;-59
2021/08/29 01:47:46;;;;;;;5.22;3.00;;;19.90;82.40;;;;;;4198271;28;20540;-60
2021/08/29 01:50:15;;;;;;;6.93;2.70;;;19.80;82.20;;;;;;4190124;28;20514;-60
2021/08/29 01:52:40;;;;;;;6.47;2.85;;;19.80;82.30;;;;;;4189608;28;20056;-60
2021/08/29 01:55:32;;;;;;;7.05;3.03;;;19.80;82.40;;;;;;4189371;28;20052;-60
2021/08/29 01:58:02;;;;;;;6.55;3.25;;;19.90;82.40;;;;;;4199274;28;20058;-60
2021/08/29 02:00:32;;;;;;;5.70;3.10;;;19.80;82.50;;;;;;4207144;28;20044;-60
2021/08/29 02:03:00;;;;;;;8.10;2.83;;;19.80;82.80;;;;;;4184545;28;20051;-60
2021/08/29 02:05:23;;;;;;;6.82;2.80;;;19.80;81.80;;;;;;4204605;28;20059;-61
2021/08/29 02:07:50;;;;;;;7.30;2.97;;;19.80;81.70;;;;;;4199092;28;20101;-60
2021/08/29 02:10:27;;;;;;;2.65;2.45;;;19.80;81.80;;;;;;4190321;28;20068;-60
2021/08/29 02:13:12;;;;;;;4.60;2.60;;;19.80;81.80;;;;;;4190967;28;20478;-60
2021/08/29 02:15:39;;;;;;;4.53;2.63;;;19.80;82.00;;;;;;4190051;28;20050;-60
2021/08/29 02:18:08;;;;;;;5.15;2.85;;;19.80;81.80;;;;;;4201170;28;20048;-59
2021/08/29 02:20:33;;;;;;;5.25;2.83;;;19.80;81.70;;;;;;4206537;28;20048;-60
2021/08/29 02:22:57;;;;;;;5.90;2.53;;;19.80;81.80;;;;;;4184659;28;20044;-59
2021/08/29 02:25:19;;;;;;;4.82;2.72;;;19.80;81.80;;;;;;4190954;28;20059;-60
2021/08/29 02:27:42;;;;;;;7.65;2.60;;;19.80;81.70;;;;;;4198753;28;20070;-59
2021/08/29 02:30:07;;;;;;;4.00;2.85;;;19.80;81.80;;;;;;4207436;28;20044;-59
2021/08/29 02:32:31;;;;;;;4.55;2.90;;;19.80;81.70;;;;;;4205809;28;20051;-59
2021/08/29 02:34:54;;;;;;;7.20;2.55;;;19.80;81.50;;;;;;4206684;28;20040;-60
2021/08/29 02:37:27;;;;;;;5.45;2.40;;;19.80;81.50;;;;;;4199730;28;20047;-60
2021/08/29 02:39:56;;;;;;;4.32;2.25;;;19.80;81.30;;;;;;4189511;28;20052;-59
2021/08/29 02:42:20;;;;;;;6.35;2.30;;;19.80;81.20;;;;;;4189436;28;20100;-60
2021/08/29 02:44:49;;;;;;;3.05;2.17;;;19.80;81.00;;;;;;4189884;28;20058;-60
2021/08/29 02:47:12;;;;;;;4.97;2.50;;;19.80;81.10;;;;;;4196153;28;20059;-59
2021/08/29 02:49:37;;;;;;;3.45;1.95;;;19.80;81.10;;;;;;4206387;28;20055;-59
2021/08/29 02:52:01;;;;;;;4.03;2.42;;;19.80;81.30;;;;;;4194768;28;20067;-59
2021/08/29 02:54:26;;;;;;;5.05;2.33;;;19.80;81.20;;;;;;4204154;28;20063;-59
2021/08/29 02:56:50;;;;;;;7.65;2.30;;;19.80;81.00;;;;;;4204206;28;20080;-59
2021/08/29 02:59:15;;;;;;;4.50;2.30;;;19.80;81.20;;;;;;4189693;28;20063;-59
2021/08/29 03:01:37;;;;;;;4.05;2.30;;;19.80;81.20;;;;;;4189921;28;20056;-59
2021/08/29 03:04:10;;;;;;;4.88;2.03;;;19.80;80.80;;;;;;4207561;28;20051;-60
2021/08/29 03:06:33;;;;;;;4.00;2.42;;;19.80;80.70;;;;;;4206026;28;20081;-59
2021/08/29 03:09:00;;;;;;;4.32;2.13;;;19.80;80.60;;;;;;4206360;28;20040;-59
2021/08/29 03:11:23;;;;;;;6.85;2.65;;;19.80;80.80;;;;;;4198098;28;20082;-59
2021/08/29 03:13:45;;;;;;;6.10;2.60;;;19.80;80.80;;;;;;4185173;28;20558;-59
2021/08/29 03:16:08;;;;;;;5.90;2.58;;;19.80;80.60;;;;;;4189267;28;20041;-59
2021/08/29 03:18:40;;;;;;;4.78;2.30;;;19.80;80.80;;;;;;4190426;28;20056;-60
2021/08/29 03:21:22;;;;;;;3.40;2.35;;;19.80;81.00;;;;;;4190608;28;20161;-60
2021/08/29 03:23:44;;;;;;;3.55;2.00;;;19.80;81.00;;;;;;4172970;28;20049;-60
2021/08/29 03:26:08;;;;;;;5.57;2.30;;;19.80;81.10;;;;;;4174046;28;20414;-59
2021/08/29 03:28:31;;;;;;;4.75;2.33;;;19.80;81.20;;;;;;4172887;28;20056;-59
2021/08/29 03:30:53;;;;;;;3.17;1.70;;;19.80;81.40;;;;;;4184752;28;20040;-59
2021/08/29 03:33:16;;;;;;;3.58;2.10;;;19.80;81.40;;;;;;4191712;28;20568;-59
2021/08/29 03:35:39;;;;;;;6.68;2.45;;;19.80;81.30;;;;;;4189185;28;20138;-59
2021/08/29 03:38:02;;;;;;;3.22;2.22;;;19.80;81.30;;;;;;4189536;28;20045;-60
2021/08/29 03:40:26;;;;;;;3.28;2.13;;;19.80;81.20;;;;;;4189229;28;20041;-59
2021/08/29 03:42:50;;;;;;;2.65;2.08;;;19.80;81.20;;;;;;4201789;28;20051;-59
2021/08/29 03:45:13;;;;;;;4.25;2.22;;;19.80;81.10;;;;;;4209121;28;20052;-59
2021/08/29 03:47:36;;;;;;;6.30;2.13;;;19.80;80.70;;;;;;4198454;28;20483;-59
2021/08/29 03:50:25;;;;;;;5.43;2.42;;;19.80;80.80;;;;;;4196031;28;20414;-59
2021/08/29 03:53:13;;;;;;;2.95;1.73;;;19.80;81.20;;;;;;4210470;28;20414;-59
2021/08/29 03:56:07;;;;;;;3.67;2.35;;;19.80;80.90;;;;;;4208671;28;20055;-59
2021/08/29 03:58:33;;;;;;;4.07;2.20;;;19.80;81.10;;;;;;4208620;28;20467;-59
2021/08/29 04:00:55;;;;;;;5.15;2.15;;;19.80;81.40;;;;;;4199957;28;20071;-60
2021/08/29 04:03:18;;;;;;;5.20;2.25;;;19.80;81.40;;;;;;4191625;28;20044;-59
2021/08/29 04:06:00;;;;;;;5.05;2.20;;;19.80;81.40;;;;;;4192870;28;20044;-59
2021/08/29 04:08:28;;;;;;;3.65;2.35;;;19.80;81.60;;;;;;4191959;28;20043;-59
2021/08/29 04:10:52;;;;;;;3.85;2.10;;;19.80;81.60;;;;;;4200284;28;20040;-58
2021/08/29 04:13:18;;;;;;;4.30;2.17;;;19.80;82.70;;;;;;4208171;28;20044;-59
2021/08/29 04:15:48;;;;;;;4.07;2.33;;;19.80;82.00;;;;;;4209526;28;20145;-59
2021/08/29 04:18:10;;;;;;;3.97;2.58;;;19.80;82.10;;;;;;4192925;28;20438;-59
2021/08/29 04:20:33;;;;;;;5.05;2.65;;;19.80;82.40;;;;;;4192155;28;20520;-60
2021/08/29 04:22:56;;;;;;;5.30;2.55;;;19.80;82.60;;;;;;4207717;28;20040;-59
2021/08/29 04:25:19;;;;;;;6.32;2.58;;;19.80;83.10;;;;;;4207556;28;20063;-58
2021/08/29 04:27:42;;;;;;;8.68;2.97;;;19.80;83.70;;;;;;4198746;28;20490;-59
2021/08/29 04:30:05;;;;;;;4.50;2.38;;;19.80;84.00;;;;;;4191299;28;20437;-59
2021/08/29 04:32:31;;;;;;;3.10;1.98;;;19.80;83.90;;;;;;4199664;28;20081;-58
2021/08/29 04:34:55;;;;;;;3.67;2.50;;;19.80;84.80;;;;;;4208233;28;20040;-59
2021/08/29 04:37:25;;;;;;;5.68;2.17;;;19.80;83.70;;;;;;4200504;28;20054;-59
2021/08/29 04:39:58;;;;;;;6.20;2.60;;;19.80;83.70;;;;;;4192204;28;20684;-60
2021/08/29 04:42:21;;;;;;;3.10;1.92;;;19.80;83.80;;;;;;4199700;28;20044;-59
2021/08/29 04:44:44;;;;;;;4.72;2.17;;;19.80;83.90;;;;;;4207992;28;20040;-59
2021/08/29 04:47:06;;;;;;;3.17;2.10;;;19.80;84.10;;;;;;4201996;28;20045;-59
2021/08/29 04:49:37;;;;;;;4.68;1.80;;;19.80;84.20;;;;;;4190489;28;20508;-60
2021/08/29 04:51:59;;;;;;;3.80;2.17;;;19.70;84.30;;;;;;4189964;28;20055;-60
2021/08/29 04:54:22;;;;;;;4.85;2.28;;;19.80;84.30;;;;;;4190981;28;20482;-59
2021/08/29 04:56:43;;;;;;;3.25;2.05;;;19.70;84.30;;;;;;4194335;28;20097;-59
2021/08/29 04:59:07;;;;;;;3.20;2.15;;;19.70;84.40;;;;;;4207367;28;20039;-59
2021/08/29 05:01:32;;;;;;;3.42;2.05;;;19.70;84.50;;;;;;4206805;28;20129;-59
2021/08/29 05:03:54;;;;;;;3.75;1.73;;;19.70;84.70;;;;;;4207773;28;20059;-59
2021/08/29 05:06:17;;;;;;;5.13;2.25;;;19.70;84.70;;;;;;4208664;28;20065;-59
2021/08/29 05:08:39;;;;;;;6.03;2.65;;;19.70;85.00;;;;;;4175841;28;20515;-60
2021/08/29 05:11:01;;;;;;;4.82;2.35;;;19.80;84.90;;;;;;4175738;28;20072;-59
2021/08/29 05:13:23;;;;;;;4.30;2.40;;;19.70;85.10;;;;;;4174263;28;20122;-58
2021/08/29 05:15:45;;;;;;;4.60;2.40;;;19.70;85.30;;;;;;4175640;28;20099;-59
2021/08/29 05:18:09;;;;;;;4.60;2.60;;;19.70;85.40;;;;;;4234533;27;20131;-59
2021/08/29 05:20:39;;;;;;;4.60;2.60;;;19.70;85.70;;;;;;4206924;28;20054;-58
2021/08/29 05:23:32;;;;;;;6.63;2.95;;;19.70;85.60;;;;;;4208542;28;20670;-59
2021/08/29 05:26:20;;;;;;;6.65;2.97;;;19.70;86.10;;;;;;4207822;28;20051;-59
2021/08/29 05:28:42;;;;;;;5.07;2.50;;;19.70;86.40;;;;;;4207648;28;20102;-58
2021/08/29 05:31:06;;;;;;;7.18;2.72;;;19.70;87.10;;;;;;4198450;28;20048;-58
2021/08/29 05:33:28;;;;;;;5.07;2.90;;;19.70;86.90;;;;;;4198944;28;20075;-58
2021/08/29 05:35:50;;;;;;;6.30;2.65;;;19.70;87.20;;;;;;4207123;28;20071;-59
2021/08/29 05:38:12;;;;;;;4.53;2.47;;;19.70;88.20;;;;;;4190420;28;20515;-58
2021/08/29 05:40:56;;;;;;;4.20;2.30;;;19.70;87.40;;;;;;4190020;28;20056;-59
2021/08/29 05:43:37;;;;;;;5.43;2.45;;;19.70;87.80;;;;;;4207904;27;20048;-58
2021/08/29 05:45:59;;;;;;;5.57;2.38;;;19.70;87.90;;;;;;4206809;27;20482;-59
2021/08/29 05:48:22;;;;;;;3.70;2.05;;;19.70;88.10;;;;;;4207196;27;20059;-59
2021/08/29 05:50:44;;;;;;;5.20;2.03;;;19.60;88.10;;;;;;4196072;28;20446;-58
2021/08/29 05:53:06;;;;;;;5.22;2.05;;;19.70;88.30;;;;;;4190358;28;20473;-58
2021/08/29 05:55:28;;;;;;;4.72;2.00;;;19.70;88.00;;;;;;4189895;28;20079;-59
2021/08/29 05:57:53;;;;;;;4.32;1.90;;;19.70;88.60;;;;;;4203276;27;20127;-59
2021/08/29 06:00:16;;;;;;;4.97;1.98;;;19.70;88.40;;;;;;4199560;27;20537;-60
2021/08/29 06:02:42;;;;;;;6.15;2.83;;;19.70;88.70;;;;;;4189538;28;20047;-59
2021/08/29 06:05:05;;;;;;;4.53;2.20;;;19.70;88.80;;;;;;4189696;28;20080;-60
2021/08/29 06:07:40;;;;;;;4.60;2.50;;;19.70;89.00;;;;;;4178267;28;20049;-60
2021/08/29 06:10:02;;;;;;;4.80;2.47;;;19.70;88.80;;;;;;4173207;28;20415;-59
2021/08/29 06:12:25;;;;;;;4.72;1.88;;;19.70;88.70;;;;;;4176575;28;20572;-58
2021/08/29 06:14:49;;;;;;;3.78;2.38;;;19.70;88.90;;;;;;4189471;28;20044;-58
2021/08/29 06:17:11;;;;;;;7.30;2.42;;;19.70;89.30;;;;;;4189480;28;20078;-59
2021/08/29 06:19:34;;;;;;;6.65;2.10;;;19.70;89.00;;;;;;4175474;28;20499;-58
2021/08/29 06:21:57;;;;;;;6.57;2.63;;;19.70;89.60;;;;;;4173399;28;20045;-59
2021/08/29 06:24:19;;;;;;;4.78;2.50;;;19.70;89.40;;;;;;4173529;28;20079;-58
2021/08/29 06:27:04;;;;;;;6.57;2.47;;;19.70;89.60;;;;;;4183117;28;20052;-58
2021/08/29 06:29:48;;;;;;;6.32;2.63;;;19.70;89.70;;;;;;4174501;28;20665;-59
2021/08/29 06:32:29;;;;;;;6.22;2.42;;;19.70;89.70;;;;;;4200661;28;20051;-58
2021/08/29 06:34:59;;;;;;;6.20;3.08;;;19.70;89.50;;;;;;4200881;28;20120;-58
2021/08/29 06:37:24;;;;;;;3.30;1.80;;;19.70;89.90;;;;;;4190132;28;20044;-58
2021/08/29 06:39:47;;;;;;;5.13;2.45;;;19.70;89.70;;;;;;4189532;28;20052;-59
2021/08/29 06:42:09;;;;;;;4.53;1.83;;;19.70;89.90;;;;;;4189639;28;20049;-58
2021/08/29 06:44:31;;;;;;;2.67;1.92;;;19.70;89.20;;;;;;4189927;28;20513;-58
2021/08/29 06:47:04;;;;;;;5.35;2.25;;;19.70;89.80;;;;;;4198712;28;20070;-58
2021/08/29 06:49:45;;;;;;;3.28;2.13;;;19.60;89.50;;;;;;4207457;28;20056;-59
2021/08/29 06:52:26;;;;;;;3.27;2.23;;;19.60;89.10;;;;;;4198781;28;20062;-58
2021/08/29 06:55:08;;;;;;;3.40;2.67;;;19.60;89.40;;;;;;4207098;28;20055;-59
2021/08/29 06:57:48;;;;;;;5.30;2.97;;;19.60;89.20;;;;;;4173958;28;20094;-59
2021/08/29 07:00:11;;;;;;;3.53;2.28;;;19.60;89.20;;;;;;4173107;28;20048;-59
2021/08/29 07:02:35;;;;;;;5.38;2.67;;;19.60;89.80;;;;;;4199007;28;20405;-59
2021/08/29 07:04:58;;;;;;;3.35;1.95;;;19.60;90.20;;;;;;4206339;28;21309;-59
2021/08/29 07:07:20;;;;;;;4.22;2.00;;;19.60;90.30;;;;;;4207404;28;20048;-58
2021/08/29 07:09:59;;;;;;;10.00;3.38;;;19.70;90.40;;;;;;4202531;28;20055;-59
2021/08/29 07:12:20;;;;;;;5.60;3.00;;;19.70;90.60;;;;;;4195015;28;20491;-59
2021/08/29 07:15:09;;;;;;;6.38;2.92;;;19.70;91.00;;;;;;4188143;28;20036;-59
2021/08/29 07:17:31;;;;;;;7.45;3.58;;;19.70;91.20;;;;;;4202986;28;20048;-59
2021/08/29 07:19:55;;;;;;;6.97;3.10;;;19.70;91.40;;;;;;4209068;28;20046;-59
2021/08/29 07:22:36;;;;;;;6.70;3.20;;;19.70;91.50;;;;;;4207796;28;20508;-59
2021/08/29 07:25:17;;;;;;;7.65;3.60;;;19.70;91.40;;;;;;4203889;28;20047;-59
2021/08/29 07:27:58;;;;;;;7.10;3.17;;;19.70;91.50;;;;;;4193508;28;20040;-58
2021/08/29 07:30:38;;;;;;;5.33;2.97;;;19.80;91.60;;;;;;4193079;28;20049;-59
2021/08/29 07:33:08;;;;;;;7.90;3.00;;;19.70;91.60;;;;;;4175375;28;20851;-59
2021/08/29 07:35:42;;;;;;;6.65;2.53;;;19.70;91.70;;;;;;4175747;28;20064;-59
2021/08/29 07:38:22;;;;;;;5.03;2.60;;;19.80;91.70;;;;;;4177137;28;20186;-59
2021/08/29 07:40:44;;;;;;;6.63;3.00;;;19.70;91.70;;;;;;4179777;28;20052;-59
2021/08/29 07:43:06;;;;;;;5.70;2.42;;;19.70;91.70;;;;;;4208835;28;20460;-59
2021/08/29 07:45:28;;;;;;;6.63;2.60;;;19.70;91.60;;;;;;4208586;28;20047;-59
2021/08/29 07:47:53;;;;;;;3.30;2.10;;;19.70;91.60;;;;;;4192246;28;20063;-60
2021/08/29 07:50:14;;;;;;;3.65;2.08;;;19.70;91.70;;;;;;4193409;28;20419;-59
2021/08/29 07:52:38;;;;;;;5.00;2.35;;;19.70;91.60;;;;;;4176998;28;20060;-59
2021/08/29 07:55:19;;;;;;;3.45;1.88;;;19.70;91.50;;;;;;4190465;28;20057;-58
2021/08/29 07:58:00;;;;;;;4.10;1.77;;;19.70;91.30;;;;;;4192757;28;20044;-59
2021/08/29 08:00:27;;;;;;;3.15;2.10;;;19.80;91.30;;;;;;4195560;28;20052;-59
2021/08/29 08:03:08;;;;;;;3.10;2.03;;;19.80;91.30;;;;;;4192737;28;20441;-58
2021/08/29 08:05:49;;;;;;;7.70;2.22;;;19.70;91.10;;;;;;4192854;28;20135;-59
2021/08/29 08:08:31;;;;;;;4.05;2.33;;;19.70;91.10;;;;;;4192955;28;20135;-59
2021/08/29 08:11:08;;;;;;;2.53;1.90;;;19.70;91.00;;;;;;4192755;28;20051;-58
2021/08/29 08:13:31;;;;;;;3.72;1.73;;;19.70;90.90;;;;;;4191871;28;20056;-59
2021/08/29 08:15:54;;;;;;;2.67;1.80;;;19.70;91.00;;;;;;4194910;28;20435;-59
2021/08/29 08:18:16;;;;;;;3.88;1.85;;;19.70;90.90;;;;;;4191754;28;20048;-59
2021/08/29 08:20:39;;;;;;;2.90;1.75;;;19.70;90.80;;;;;;4191881;28;20056;-60
2021/08/29 08:23:22;;;;;;;4.82;2.20;;;19.70;90.80;;;;;;4193234;28;20501;-59
2021/08/29 08:26:07;;;;;;;3.28;1.55;;;19.70;90.80;;;;;;4203405;28;20056;-60
2021/08/29 08:29:07;;;;;;;3.67;1.73;;;19.70;90.90;;;;;;4172708;28;20053;-61
2021/08/29 08:31:48;;;;;;;4.33;2.03;;;19.70;90.80;;;;;;4157903;28;20555;-60
2021/08/29 08:34:33;;;;;;;3.28;1.88;;;19.70;90.80;;;;;;4174313;28;20056;-58
2021/08/29 08:37:00;;;;;;;4.20;1.95;;;19.70;90.90;;;;;;4183878;28;20424;-60
2021/08/29 08:39:42;;;;;;;2.28;1.50;;;19.70;90.80;;;;;;4192211;28;20048;-60
2021/08/29 08:42:19;;;;;;;3.20;2.00;;;19.70;90.80;;;;;;4189023;28;20049;-61
2021/08/29 08:45:00;;;;;;;3.85;2.00;;;19.70;90.80;;;;;;4186385;28;20048;-61
2021/08/29 08:47:44;;;;;;;3.88;1.50;;;19.70;90.80;;;;;;4176123;28;20045;-61
2021/08/29 08:50:27;;;;;;;3.45;2.00;;;19.70;90.80;;;;;;4175867;28;20506;-61
2021/08/29 08:53:07;;;;;;;5.03;1.70;;;19.70;90.80;;;;;;4189082;28;20051;-61
2021/08/29 08:56:00;;;;;;;3.10;1.75;;;19.70;90.80;;;;;;4189832;28;20049;-62
2021/08/29 08:58:58;;;;;;;1.55;1.33;;;19.70;90.80;;;;;;4165884;28;20488;-62
2021/08/29 09:01:47;;;;;;;3.25;2.00;;;19.70;90.80;;;;;;4178616;28;20055;-62
2021/08/29 09:04:42;;;;;;;3.78;1.83;;;19.60;90.70;;;;;;4182904;28;20487;-62
2021/08/29 09:07:06;;;;;;;4.95;1.63;;;19.70;90.70;;;;;;4190380;28;20056;-62
2021/08/29 09:09:29;;;;;;;3.63;1.90;;;19.70;90.70;;;;;;4190618;28;20466;-63
2021/08/29 09:11:51;;;;;;;1.85;1.63;;;19.70;90.70;;;;;;4181043;28;20041;-63
2021/08/29 09:14:15;;;;;;;6.90;2.10;;;19.70;90.70;;;;;;4188348;28;20060;-62
2021/08/29 09:16:38;;;;;;;1.83;1.67;;;19.70;90.70;;;;;;4174058;28;20052;-62
2021/08/29 09:19:02;;;;;;;3.17;1.77;;;19.70;90.70;;;;;;4175522;28;20044;-62
2021/08/29 09:21:26;;;;;;;2.55;1.73;;;19.70;90.60;;;;;;4188605;28;20044;-62
2021/08/29 09:23:51;;;;;;;2.45;1.30;;;19.70;90.60;;;;;;4185370;28;20052;-62
2021/08/29 09:26:44;;;;;;;2.50;1.70;;;19.70;90.60;;;;;;4174120;28;20135;-63
2021/08/29 09:29:41;;;;;;;1.48;1.38;;;19.60;90.60;;;;;;4174812;28;20095;-62
2021/08/29 09:32:06;;;;;;;4.63;1.70;;;19.70;90.70;;;;;;4175235;28;20048;-59
2021/08/29 09:34:37;;;;;;;2.13;1.38;;;19.60;90.70;;;;;;4188835;28;20124;-60
2021/08/29 09:37:04;;;;;;;2.28;1.35;;;19.70;91.20;;;;;;4190016;28;20063;-59
2021/08/29 09:39:34;;;;;;;3.75;1.70;;;19.70;90.80;;;;;;4185714;28;20106;-60
2021/08/29 09:42:15;;;;;;;2.55;1.77;;;19.70;90.80;;;;;;4184982;28;20045;-59
2021/08/29 09:44:39;;;;;;;3.47;1.52;;;19.70;90.80;;;;;;4175188;28;20056;-60
2021/08/29 09:47:20;;;;;;;2.03;1.40;;;19.60;90.80;;;;;;4172835;28;20083;-60
2021/08/29 09:50:06;;;;;;;3.80;1.60;;;19.70;90.90;;;;;;4180259;28;20056;-60
2021/08/29 09:52:49;;;;;;;5.05;1.92;;;19.70;90.80;;;;;;4189554;28;20130;-59
2021/08/29 09:55:27;;;;;;;2.78;1.30;;;19.70;91.30;;;;;;4188934;28;20056;-60
2021/08/29 09:58:23;;;;;;;1.88;1.50;;;19.70;91.10;;;;;;4180637;28;20492;-59
2021/08/29 10:01:25;;;;;;;;;;;19.70;91.10;;;;;;4180217;28;20065;-59
2021/08/29 10:04:18;;;;;;;2.35;1.67;;;19.60;91.00;;;;;;4174053;28;19935;-58
2021/08/29 10:06:43;;;;;;;3.88;1.50;;;19.60;91.20;;;;;;4184459;28;20132;-60
2021/08/29 10:09:05;;;;;;;3.40;1.55;;;19.60;91.30;;;;;;4172473;28;20064;-59
2021/08/29 10:11:40;;;;;;;2.88;1.85;;;19.60;91.40;;;;;;4177009;28;20173;-59
2021/08/29 10:14:02;;;;;;;1.45;1.40;;;19.60;91.50;;;;;;4189764;28;20056;-59
2021/08/29 10:16:28;;;;;;;3.58;1.77;;;19.60;91.50;;;;;;4188644;28;20579;-58
2021/08/29 10:19:27;;;;;;;4.35;1.83;;;19.70;91.50;;;;;;4190537;28;20429;-59
2021/08/29 10:22:25;;;;;;;1.48;1.30;;;19.70;91.70;;;;;;4170531;28;20044;-60
2021/08/29 10:24:48;;;;;;;4.07;1.70;;;19.60;91.60;;;;;;4196124;28;20045;-60
2021/08/29 10:27:15;;;;;;;1.98;1.80;;;19.70;91.80;;;;;;4185547;28;20657;-59
2021/08/29 10:30:06;;;;;;;3.22;2.20;;;19.70;91.80;;;;;;4185376;28;20045;-60
2021/08/29 10:32:51;;;;;;;3.15;2.00;;;19.70;91.70;;;;;;4173843;28;20047;-59
2021/08/29 10:35:32;;;;;;;1.95;1.65;;;19.60;91.70;;;;;;4186545;28;20048;-59
2021/08/29 10:38:10;;;;;;;3.35;1.80;;;19.70;91.80;;;;;;4188165;28;20041;-59
2021/08/29 10:40:53;;;;;;;2.83;2.15;;;19.70;91.90;;;;;;4180703;28;20045;-59
2021/08/29 10:43:20;;;;;;;2.10;1.55;;;19.60;91.90;;;;;;4173785;28;20060;-59
2021/08/29 10:46:16;;;;;;;3.80;1.80;;;19.70;91.90;;;;;;4165034;28;20094;-60
2021/08/29 10:49:06;;;;;;;2.97;1.83;;;19.70;92.00;;;;;;4183920;28;20044;-59
2021/08/29 10:51:32;;;;;;;2.70;1.80;;;19.70;92.10;;;;;;4190559;28;20056;-60
2021/08/29 10:53:56;;;;;;;1.95;1.63;;;19.70;92.10;;;;;;4185492;28;20060;-60
2021/08/29 10:56:33;;;;;;;3.67;2.08;;;19.70;92.20;;;;;;4195243;28;20140;-60
2021/08/29 10:59:24;;;;;;;2.40;2.03;;;19.70;92.20;;;;;;4192016;28;20614;-60
2021/08/29 11:01:50;;;;;;;2.75;2.00;;;19.70;92.30;;;;;;4192472;28;20058;-59
2021/08/29 11:04:50;;;;;;;3.03;1.90;;;19.60;92.30;;;;;;4178624;28;20102;-59
2021/08/29 11:07:51;;;;;;;3.28;2.00;;;19.70;92.40;;;;;;4173618;28;20064;-59
2021/08/29 11:10:30;;;;;;;4.40;2.22;;;19.70;92.50;;;;;;4172114;28;20036;-59
2021/08/29 11:12:52;;;;;;;3.50;2.35;;;19.70;92.50;;;;;;4175995;28;20045;-59
2021/08/29 11:15:15;;;;;;;5.20;2.08;;;19.70;92.50;;;;;;4176126;28;20442;-59
2021/08/29 11:18:01;;;;;;;4.97;2.92;;;19.70;92.80;;;;;;4176171;28;20072;-60
2021/08/29 11:20:57;;;;;;;5.30;2.15;;;19.70;92.80;;;;;;4177469;28;20049;-59
2021/08/29 11:23:45;;;;;;;3.30;2.03;;;19.70;92.90;;;;;;4161152;28;20539;-60
2021/08/29 11:26:27;;;;;;;3.00;2.47;;;19.70;93.00;;;;;;4177075;28;20041;-59
2021/08/29 11:29:50;;;;;;;2.95;2.40;;;19.70;93.30;;;;;;4166193;28;20049;-60
2021/08/29 11:32:31;;;;;;;3.15;2.05;;;19.80;93.30;;;;;;4175119;28;20053;-60
2021/08/29 11:35:04;;;;;;;2.33;2.05;;;19.70;93.30;;;;;;4175687;28;20055;-60
2021/08/29 11:37:32;;;;;;;2.17;2.05;;;19.70;93.30;;;;;;4175473;28;20049;-60
2021/08/29 11:40:24;;;;;;;4.20;2.65;;;19.80;93.40;;;;;;4159112;28;20167;-60
2021/08/29 11:43:06;;;;;;;3.13;2.58;;;19.70;93.40;;;;;;4191342;28;20048;-60
2021/08/29 11:45:28;;;;;;;4.57;2.28;;;19.80;93.40;;;;;;4191571;28;20048;-60
2021/08/29 11:47:52;;;;;;;2.55;2.33;;;19.80;93.30;;;;;;4192324;28;20040;-60
2021/08/29 11:50:31;;;;;;;3.60;2.40;;;19.80;93.40;;;;;;4191647;28;20052;-60
2021/08/29 11:53:23;;;;;;;5.25;2.35;;;19.80;93.30;;;;;;4184373;28;20049;-60
2021/08/29 11:55:46;;;;;;;3.13;2.90;;;19.80;93.30;;;;;;4205281;27;20040;-60
2021/08/29 11:58:19;;;;;;;5.68;2.60;;;19.80;93.20;;;;;;4191449;28;20060;-59
2021/08/29 12:00:42;;;;;;;3.00;2.60;;;19.80;93.20;;;;;;4197919;27;20051;-59
2021/08/29 12:03:11;;;;;;;2.80;2.60;;;19.80;93.10;;;;;;4158825;28;20056;-59
2021/08/29 12:05:35;;;;;;;5.20;2.95;;;19.80;93.00;;;;;;4180665;28;20059;-59
2021/08/29 12:08:21;;;;;;;6.30;2.90;;;19.90;93.10;;;;;;4169821;28;20084;-59
2021/08/29 12:11:04;;;;;;;4.03;2.88;;;19.80;92.90;;;;;;4175624;28;20044;-60
2021/08/29 12:13:45;;;;;;;2.70;2.40;;;19.80;93.10;;;;;;4195033;28;20048;-59
2021/08/29 12:16:36;;;;;;;3.22;2.75;;;19.80;93.20;;;;;;4170313;28;20053;-59
2021/08/29 12:19:11;;;;;;;6.67;3.07;;;19.90;93.20;;;;;;4180868;28;20134;-60
2021/08/29 12:21:52;;;;;;;3.55;2.85;;;19.90;93.30;;;;;;4164415;28;20049;-59
2021/08/29 12:24:34;;;;;;;;;;;19.90;93.20;;;;;;4159805;28;20191;-59
2021/08/29 12:27:03;;;;;;;4.32;2.78;;;19.90;93.10;;;;;;4159406;28;20372;-59
2021/08/29 12:29:26;;;;;;;4.10;2.90;;;19.80;93.10;;;;;;4158008;28;20049;-59
2021/08/29 12:31:48;;;;;;;3.50;3.05;;;19.80;93.00;;;;;;4175137;28;20041;-59
2021/08/29 12:34:11;;;;;;;4.40;2.75;;;19.90;93.00;;;;;;4173588;28;20041;-59
2021/08/29 12:36:33;;;;;;;3.10;2.65;;;19.90;93.00;;;;;;4176270;28;20438;-60
2021/08/29 12:38:59;;;;;;;4.50;2.55;;;19.90;93.00;;;;;;4178038;28;20037;-60
2021/08/29 12:41:21;;;;;;;3.75;2.30;;;19.90;93.00;;;;;;4172497;28;20063;-59
2021/08/29 12:43:45;;;;;;;4.05;2.80;;;19.90;93.00;;;;;;4174681;28;20060;-59
2021/08/29 12:46:11;;;;;;;2.35;2.17;;;19.90;93.10;;;;;;4184029;28;20045;-59
2021/08/29 12:48:33;;;;;;;2.42;2.22;;;19.90;93.10;;;;;;4175215;28;20052;-59
2021/08/29 12:51:00;;;;;;;4.30;2.45;;;19.90;93.10;;;;;;4186229;28;20056;-59
2021/08/29 12:53:25;;;;;;;3.75;2.00;;;19.90;93.10;;;;;;4190258;28;20041;-59
2021/08/29 12:55:51;;;;;;;4.10;2.33;;;19.90;93.10;;;;;;4183440;28;20045;-59
2021/08/29 12:58:13;;;;;;;2.40;2.25;;;19.90;93.10;;;;;;4192254;28;20045;-58
2021/08/29 13:00:38;;;;;;;2.22;1.98;;;19.90;93.20;;;;;;4193145;28;20109;-58
2021/08/29 13:03:01;;;;;;;3.50;2.63;;;19.90;93.10;;;;;;4192770;28;20080;-59
2021/08/29 13:05:35;;;;;;;3.55;2.10;;;20.00;93.10;;;;;;4181423;28;20088;-59